Terminal Aerodrome Forecast
Issued by NWS

Home | Current Version | Previous Version | Text Only | Print | Product List | Glossary On
Versions: 1 2 3 4 5 6 7 8 9 10 11 12 13 14 15 16 17 18 19 20 21 22 23 24
267
FTUS46 KSEW 081120
TAFSEA
TAF
KSEA 081120Z 0812/0918 02007KT P6SM SCT200
     FM082000 36007KT P6SM SCT250
     FM090800 36005KT P6SM SCT250=

USA.gov is the U.S. government's official web portal to all federal, state and local government web resources and services.